sensor_id;sensor_type;location;lat;lon;timestamp;temperature;humidity
15072;DHT22;7635;56.696;13.002;2023-03-30T00:02:17;5.40;99.90
15072;DHT22;7635;56.696;13.002;2023-03-30T00:04:48;5.40;99.90
15072;DHT22;7635;56.696;13.002;2023-03-30T00:07:15;5.40;99.90
15072;DHT22;7635;56.696;13.002;2023-03-30T00:09:42;5.30;99.90
15072;DHT22;7635;56.696;13.002;2023-03-30T00:12:11;5.30;99.90
15072;DHT22;7635;56.696;13.002;2023-03-30T00:14:38;5.30;99.90
15072;DHT22;7635;56.696;13.002;2023-03-30T00:17:07;5.20;99.90
15072;DHT22;7635;56.696;13.002;2023-03-30T00:19:34;5.20;99.90
15072;DHT22;7635;56.696;13.002;2023-03-30T00:22:03;5.20;99.90
15072;DHT22;7635;56.696;13.002;2023-03-30T00:24:30;5.10;99.90
15072;DHT22;7635;56.696;13.002;2023-03-30T00:26:57;5.00;99.90
15072;DHT22;7635;56.696;13.002;2023-03-30T00:29:23;5.00;99.90
15072;DHT22;7635;56.696;13.002;2023-03-30T00:31:50;4.90;99.90
15072;DHT22;7635;56.696;13.002;2023-03-30T00:34:17;4.80;99.90
15072;DHT22;7635;56.696;13.002;2023-03-30T00:36:43;4.80;99.90
15072;DHT22;7635;56.696;13.002;2023-03-30T00:39:12;4.70;99.90
15072;DHT22;7635;56.696;13.002;2023-03-30T00:41:39;4.70;99.90
15072;DHT22;7635;56.696;13.002;2023-03-30T00:44:08;4.60;99.90
15072;DHT22;7635;56.696;13.002;2023-03-30T00:46:54;4.60;99.90
15072;DHT22;7635;56.696;13.002;2023-03-30T00:49:21;4.60;99.90
15072;DHT22;7635;56.696;13.002;2023-03-30T00:51:48;4.50;99.90
15072;DHT22;7635;56.696;13.002;2023-03-30T00:54:18;4.50;99.90
15072;DHT22;7635;56.696;13.002;2023-03-30T00:56:45;4.50;99.90
15072;DHT22;7635;56.696;13.002;2023-03-30T00:59:12;4.40;99.90
15072;DHT22;7635;56.696;13.002;2023-03-30T01:01:40;4.40;99.90
15072;DHT22;7635;56.696;13.002;2023-03-30T01:04:08;4.40;99.90
15072;DHT22;7635;56.696;13.002;2023-03-30T01:06:35;4.40;99.90
15072;DHT22;7635;56.696;13.002;2023-03-30T01:09:04;4.30;99.90
15072;DHT22;7635;56.696;13.002;2023-03-30T01:11:34;4.30;99.90
15072;DHT22;7635;56.696;13.002;2023-03-30T01:14:04;4.30;99.90
15072;DHT22;7635;56.696;13.002;2023-03-30T01:16:38;4.30;99.90
15072;DHT22;7635;56.696;13.002;2023-03-30T01:19:23;4.30;99.90
15072;DHT22;7635;56.696;13.002;2023-03-30T01:22:03;4.30;99.90
15072;DHT22;7635;56.696;13.002;2023-03-30T01:24:55;4.30;99.90
15072;DHT22;7635;56.696;13.002;2023-03-30T01:27:56;4.20;99.90
15072;DHT22;7635;56.696;13.002;2023-03-30T01:30:44;4.20;99.90
15072;DHT22;7635;56.696;13.002;2023-03-30T01:33:44;4.20;99.90
15072;DHT22;7635;56.696;13.002;2023-03-30T01:36:32;4.20;99.90
15072;DHT22;7635;56.696;13.002;2023-03-30T01:39:14;4.20;99.90
15072;DHT22;7635;56.696;13.002;2023-03-30T01:41:51;4.20;99.90
15072;DHT22;7635;56.696;13.002;2023-03-30T01:44:26;4.20;99.90
15072;DHT22;7635;56.696;13.002;2023-03-30T01:46:56;4.20;99.90
15072;DHT22;7635;56.696;13.002;2023-03-30T01:49:28;4.10;99.90
15072;DHT22;7635;56.696;13.002;2023-03-30T01:52:01;4.10;99.90
15072;DHT22;7635;56.696;13.002;2023-03-30T01:54:35;4.10;99.90
15072;DHT22;7635;56.696;13.002;2023-03-30T01:57:06;4.10;99.90
15072;DHT22;7635;56.696;13.002;2023-03-30T01:59:37;4.10;99.90
15072;DHT22;7635;56.696;13.002;2023-03-30T02:02:08;4.10;99.90
15072;DHT22;7635;56.696;13.002;2023-03-30T02:04:38;4.10;99.90
15072;DHT22;7635;56.696;13.002;2023-03-30T02:07:09;4.10;99.90
15072;DHT22;7635;56.696;13.002;2023-03-30T02:09:39;4.10;99.90
15072;DHT22;7635;56.696;13.002;2023-03-30T02:12:08;4.10;99.90
15072;DHT22;7635;56.696;13.002;2023-03-30T02:14:36;4.10;99.90
15072;DHT22;7635;56.696;13.002;2023-03-30T02:17:08;4.10;99.90
15072;DHT22;7635;56.696;13.002;2023-03-30T02:19:38;4.10;99.90
15072;DHT22;7635;56.696;13.002;2023-03-30T02:22:06;4.10;99.90
15072;DHT22;7635;56.696;13.002;2023-03-30T02:24:35;4.10;99.90
15072;DHT22;7635;56.696;13.002;2023-03-30T02:27:04;4.10;99.90
15072;DHT22;7635;56.696;13.002;2023-03-30T02:29:31;4.10;99.90
15072;DHT22;7635;56.696;13.002;2023-03-30T02:31:59;4.10;99.90
15072;DHT22;7635;56.696;13.002;2023-03-30T02:34:39;4.00;99.90
15072;DHT22;7635;56.696;13.002;2023-03-30T02:37:36;4.00;99.90
15072;DHT22;7635;56.696;13.002;2023-03-30T02:40:19;4.10;99.90
15072;DHT22;7635;56.696;13.002;2023-03-30T02:43:17;4.00;99.90
15072;DHT22;7635;56.696;13.002;2023-03-30T02:45:52;4.00;99.90
15072;DHT22;7635;56.696;13.002;2023-03-30T02:48:30;4.00;99.90
15072;DHT22;7635;56.696;13.002;2023-03-30T02:51:10;4.00;99.90
15072;DHT22;7635;56.696;13.002;2023-03-30T02:53:43;4.00;99.90
15072;DHT22;7635;56.696;13.002;2023-03-30T02:56:14;4.00;99.90
15072;DHT22;7635;56.696;13.002;2023-03-30T02:58:49;4.00;99.90
15072;DHT22;7635;56.696;13.002;2023-03-30T03:01:22;4.00;99.90
15072;DHT22;7635;56.696;13.002;2023-03-30T03:03:56;4.00;99.90
15072;DHT22;7635;56.696;13.002;2023-03-30T03:06:24;4.00;99.90
15072;DHT22;7635;56.696;13.002;2023-03-30T03:08:52;4.00;99.90
15072;DHT22;7635;56.696;13.002;2023-03-30T03:11:20;4.00;99.90
15072;DHT22;7635;56.696;13.002;2023-03-30T03:13:49;4.00;99.90
15072;DHT22;7635;56.696;13.002;2023-03-30T03:16:16;3.90;99.90
15072;DHT22;7635;56.696;13.002;2023-03-30T03:18:43;3.90;99.90
15072;DHT22;7635;56.696;13.002;2023-03-30T03:21:11;4.00;99.90
15072;DHT22;7635;56.696;13.002;2023-03-30T03:23:39;3.90;99.90
15072;DHT22;7635;56.696;13.002;2023-03-30T03:26:05;3.90;99.90
15072;DHT22;7635;56.696;13.002;2023-03-30T03:28:33;3.90;99.90
15072;DHT22;7635;56.696;13.002;2023-03-30T03:31:01;3.90;99.90
15072;DHT22;7635;56.696;13.002;2023-03-30T03:33:28;3.90;99.90
15072;DHT22;7635;56.696;13.002;2023-03-30T03:35:57;3.90;99.90
15072;DHT22;7635;56.696;13.002;2023-03-30T03:38:24;3.90;99.90
15072;DHT22;7635;56.696;13.002;2023-03-30T03:40:53;3.90;99.90
15072;DHT22;7635;56.696;13.002;2023-03-30T03:43:20;3.80;99.90
15072;DHT22;7635;56.696;13.002;2023-03-30T03:45:49;3.80;99.90
15072;DHT22;7635;56.696;13.002;2023-03-30T03:48:18;3.90;99.90
15072;DHT22;7635;56.696;13.002;2023-03-30T03:50:49;3.80;99.90
15072;DHT22;7635;56.696;13.002;2023-03-30T03:53:16;3.80;99.90
15072;DHT22;7635;56.696;13.002;2023-03-30T03:55:43;3.80;99.90
15072;DHT22;7635;56.696;13.002;2023-03-30T03:58:10;3.80;99.90
15072;DHT22;7635;56.696;13.002;2023-03-30T04:00:37;3.80;99.90
15072;DHT22;7635;56.696;13.002;2023-03-30T04:03:04;3.80;99.90
15072;DHT22;7635;56.696;13.002;2023-03-30T04:05:33;3.80;99.90
15072;DHT22;7635;56.696;13.002;2023-03-30T04:08:00;3.80;99.90
15072;DHT22;7635;56.696;13.002;2023-03-30T04:10:27;3.80;99.90
15072;DHT22;7635;56.696;13.002;2023-03-30T04:12:54;3.80;99.90
15072;DHT22;7635;56.696;13.002;2023-03-30T04:15:21;3.80;99.90
15072;DHT22;7635;56.696;13.002;2023-03-30T04:17:47;3.80;99.90
15072;DHT22;7635;56.696;13.002;2023-03-30T04:20:15;3.80;99.90
15072;DHT22;7635;56.696;13.002;2023-03-30T04:22:43;3.80;99.90
15072;DHT22;7635;56.696;13.002;2023-03-30T04:25:11;3.80;99.90
15072;DHT22;7635;56.696;13.002;2023-03-30T04:27:39;3.70;99.90
15072;DHT22;7635;56.696;13.002;2023-03-30T04:30:08;3.70;99.90
15072;DHT22;7635;56.696;13.002;2023-03-30T04:32:35;3.70;99.90
15072;DHT22;7635;56.696;13.002;2023-03-30T04:35:03;3.70;99.90
15072;DHT22;7635;56.696;13.002;2023-03-30T04:37:30;3.70;99.90
15072;DHT22;7635;56.696;13.002;2023-03-30T04:40:00;3.80;99.90
15072;DHT22;7635;56.696;13.002;2023-03-30T04:42:28;3.70;99.90
15072;DHT22;7635;56.696;13.002;2023-03-30T04:44:58;3.70;99.90
15072;DHT22;7635;56.696;13.002;2023-03-30T04:47:27;3.70;99.90
15072;DHT22;7635;56.696;13.002;2023-03-30T04:49:54;3.70;99.90
15072;DHT22;7635;56.696;13.002;2023-03-30T04:52:20;3.70;99.90
15072;DHT22;7635;56.696;13.002;2023-03-30T04:54:47;3.70;99.90
15072;DHT22;7635;56.696;13.002;2023-03-30T04:57:15;3.70;99.90
15072;DHT22;7635;56.696;13.002;2023-03-30T04:59:43;3.70;99.90
15072;DHT22;7635;56.696;13.002;2023-03-30T05:02:10;3.80;99.90
15072;DHT22;7635;56.696;13.002;2023-03-30T05:04:38;3.70;99.90
15072;DHT22;7635;56.696;13.002;2023-03-30T05:07:05;3.70;99.90
15072;DHT22;7635;56.696;13.002;2023-03-30T05:09:32;3.70;99.90
15072;DHT22;7635;56.696;13.002;2023-03-30T05:11:59;3.80;99.90
15072;DHT22;7635;56.696;13.002;2023-03-30T05:14:27;3.70;99.90
15072;DHT22;7635;56.696;13.002;2023-03-30T05:16:54;3.70;99.90
15072;DHT22;7635;56.696;13.002;2023-03-30T05:19:21;3.80;99.90
15072;DHT22;7635;56.696;13.002;2023-03-30T05:21:47;3.70;99.90
15072;DHT22;7635;56.696;13.002;2023-03-30T05:24:14;3.80;99.90
15072;DHT22;7635;56.696;13.002;2023-03-30T05:26:41;3.80;99.90
15072;DHT22;7635;56.696;13.002;2023-03-30T05:29:08;3.80;99.90
15072;DHT22;7635;56.696;13.002;2023-03-30T05:31:36;3.80;99.90
15072;DHT22;7635;56.696;13.002;2023-03-30T05:34:04;3.80;99.90
15072;DHT22;7635;56.696;13.002;2023-03-30T05:36:31;3.80;99.90
15072;DHT22;7635;56.696;13.002;2023-03-30T05:38:59;3.80;99.90
15072;DHT22;7635;56.696;13.002;2023-03-30T05:41:29;3.80;99.90
15072;DHT22;7635;56.696;13.002;2023-03-30T05:43:56;3.80;99.90
15072;DHT22;7635;56.696;13.002;2023-03-30T05:46:23;3.80;99.90
15072;DHT22;7635;56.696;13.002;2023-03-30T05:48:51;3.80;99.90
15072;DHT22;7635;56.696;13.002;2023-03-30T05:51:17;3.80;99.90
15072;DHT22;7635;56.696;13.002;2023-03-30T05:53:44;3.80;99.90
15072;DHT22;7635;56.696;13.002;2023-03-30T05:56:11;3.80;99.90
15072;DHT22;7635;56.696;13.002;2023-03-30T05:58:38;3.90;99.90
15072;DHT22;7635;56.696;13.002;2023-03-30T06:01:05;3.90;99.90
15072;DHT22;7635;56.696;13.002;2023-03-30T06:03:33;3.90;99.90
15072;DHT22;7635;56.696;13.002;2023-03-30T06:06:02;3.80;99.90
15072;DHT22;7635;56.696;13.002;2023-03-30T06:08:29;3.80;99.90
15072;DHT22;7635;56.696;13.002;2023-03-30T06:10:56;3.80;99.90
15072;DHT22;7635;56.696;13.002;2023-03-30T06:13:23;3.80;99.90
15072;DHT22;7635;56.696;13.002;2023-03-30T06:15:50;3.80;99.90
15072;DHT22;7635;56.696;13.002;2023-03-30T06:18:16;3.80;99.90
15072;DHT22;7635;56.696;13.002;2023-03-30T06:20:45;3.80;99.90
15072;DHT22;7635;56.696;13.002;2023-03-30T06:23:14;3.70;99.90
15072;DHT22;7635;56.696;13.002;2023-03-30T06:25:44;3.70;99.90
15072;DHT22;7635;56.696;13.002;2023-03-30T06:28:11;3.70;99.90
15072;DHT22;7635;56.696;13.002;2023-03-30T06:30:38;3.60;99.90
15072;DHT22;7635;56.696;13.002;2023-03-30T06:33:05;3.70;99.90
15072;DHT22;7635;56.696;13.002;2023-03-30T06:35:32;3.60;99.90
15072;DHT22;7635;56.696;13.002;2023-03-30T06:37:59;3.60;99.90
15072;DHT22;7635;56.696;13.002;2023-03-30T06:40:27;3.60;99.90
15072;DHT22;7635;56.696;13.002;2023-03-30T06:42:53;3.60;99.90
15072;DHT22;7635;56.696;13.002;2023-03-30T06:45:21;3.60;99.90
15072;DHT22;7635;56.696;13.002;2023-03-30T06:47:48;3.60;99.90
15072;DHT22;7635;56.696;13.002;2023-03-30T06:50:15;3.60;99.90
15072;DHT22;7635;56.696;13.002;2023-03-30T06:52:42;3.60;99.90
15072;DHT22;7635;56.696;13.002;2023-03-30T06:55:08;3.60;99.90
15072;DHT22;7635;56.696;13.002;2023-03-30T06:57:37;3.50;99.90
15072;DHT22;7635;56.696;13.002;2023-03-30T07:00:05;3.60;99.90
15072;DHT22;7635;56.696;13.002;2023-03-30T07:02:37;3.60;99.90
15072;DHT22;7635;56.696;13.002;2023-03-30T07:05:05;3.60;99.90
15072;DHT22;7635;56.696;13.002;2023-03-30T07:07:32;3.60;99.90
15072;DHT22;7635;56.696;13.002;2023-03-30T07:09:59;3.60;99.90
15072;DHT22;7635;56.696;13.002;2023-03-30T07:12:26;3.60;99.90
15072;DHT22;7635;56.696;13.002;2023-03-30T07:14:54;3.60;99.90
15072;DHT22;7635;56.696;13.002;2023-03-30T07:17:21;3.60;99.90
15072;DHT22;7635;56.696;13.002;2023-03-30T07:19:48;3.60;99.90
15072;DHT22;7635;56.696;13.002;2023-03-30T07:22:15;3.60;99.90
15072;DHT22;7635;56.696;13.002;2023-03-30T07:24:42;3.60;99.90
15072;DHT22;7635;56.696;13.002;2023-03-30T07:27:09;3.60;99.90
15072;DHT22;7635;56.696;13.002;2023-03-30T07:29:36;3.60;99.90
15072;DHT22;7635;56.696;13.002;2023-03-30T07:32:04;3.60;99.90
15072;DHT22;7635;56.696;13.002;2023-03-30T07:34:31;3.60;99.90
15072;DHT22;7635;56.696;13.002;2023-03-30T07:36:58;3.60;99.90
15072;DHT22;7635;56.696;13.002;2023-03-30T07:39:26;3.60;99.90
15072;DHT22;7635;56.696;13.002;2023-03-30T07:41:52;3.60;99.90
15072;DHT22;7635;56.696;13.002;2023-03-30T07:44:19;3.60;99.90
15072;DHT22;7635;56.696;13.002;2023-03-30T07:46:46;3.60;99.90
15072;DHT22;7635;56.696;13.002;2023-03-30T07:49:14;3.60;99.90
15072;DHT22;7635;56.696;13.002;2023-03-30T07:51:41;3.60;99.90
15072;DHT22;7635;56.696;13.002;2023-03-30T07:54:07;3.50;99.90
15072;DHT22;7635;56.696;13.002;2023-03-30T07:56:34;3.50;99.90
15072;DHT22;7635;56.696;13.002;2023-03-30T07:59:03;3.50;99.90
15072;DHT22;7635;56.696;13.002;2023-03-30T08:01:32;3.50;99.90
15072;DHT22;7635;56.696;13.002;2023-03-30T08:03:59;3.50;99.90
15072;DHT22;7635;56.696;13.002;2023-03-30T08:06:29;3.50;99.90
15072;DHT22;7635;56.696;13.002;2023-03-30T08:08:56;3.50;99.90
15072;DHT22;7635;56.696;13.002;2023-03-30T08:11:22;3.50;99.90
15072;DHT22;7635;56.696;13.002;2023-03-30T08:13:49;3.50;99.90
15072;DHT22;7635;56.696;13.002;2023-03-30T08:16:16;3.50;99.90
15072;DHT22;7635;56.696;13.002;2023-03-30T08:18:42;3.50;99.90
15072;DHT22;7635;56.696;13.002;2023-03-30T08:21:11;3.50;99.90
15072;DHT22;7635;56.696;13.002;2023-03-30T08:23:39;3.50;99.90
15072;DHT22;7635;56.696;13.002;2023-03-30T08:26:06;3.50;99.90
15072;DHT22;7635;56.696;13.002;2023-03-30T08:28:33;3.40;99.90
15072;DHT22;7635;56.696;13.002;2023-03-30T08:31:04;3.40;99.90
15072;DHT22;7635;56.696;13.002;2023-03-30T08:33:31;3.50;99.90
15072;DHT22;7635;56.696;13.002;2023-03-30T08:35:58;3.40;99.90
15072;DHT22;7635;56.696;13.002;2023-03-30T08:38:25;3.50;99.90
15072;DHT22;7635;56.696;13.002;2023-03-30T08:40:53;3.50;99.90
15072;DHT22;7635;56.696;13.002;2023-03-30T08:46:14;3.50;99.90
15072;DHT22;7635;56.696;13.002;2023-03-30T08:48:43;3.50;99.90
15072;DHT22;7635;56.696;13.002;2023-03-30T08:51:19;3.50;99.90
15072;DHT22;7635;56.696;13.002;2023-03-30T08:53:50;3.60;99.90
15072;DHT22;7635;56.696;13.002;2023-03-30T08:56:22;3.50;99.90
15072;DHT22;7635;56.696;13.002;2023-03-30T08:58:54;3.50;99.90
15072;DHT22;7635;56.696;13.002;2023-03-30T09:01:29;3.50;99.90
15072;DHT22;7635;56.696;13.002;2023-03-30T09:04:06;3.60;99.90
15072;DHT22;7635;56.696;13.002;2023-03-30T09:06:44;3.60;99.90
15072;DHT22;7635;56.696;13.002;2023-03-30T09:09:16;3.60;99.90
15072;DHT22;7635;56.696;13.002;2023-03-30T09:11:45;3.70;99.90
15072;DHT22;7635;56.696;13.002;2023-03-30T09:14:20;3.70;99.90
15072;DHT22;7635;56.696;13.002;2023-03-30T09:16:53;3.70;99.90
15072;DHT22;7635;56.696;13.002;2023-03-30T09:19:26;3.70;99.90
15072;DHT22;7635;56.696;13.002;2023-03-30T09:21:56;3.80;99.90
15072;DHT22;7635;56.696;13.002;2023-03-30T09:24:25;3.80;99.90
15072;DHT22;7635;56.696;13.002;2023-03-30T09:26:58;3.70;99.90
15072;DHT22;7635;56.696;13.002;2023-03-30T09:29:30;3.70;99.90
15072;DHT22;7635;56.696;13.002;2023-03-30T09:32:02;3.70;99.90
15072;DHT22;7635;56.696;13.002;2023-03-30T09:34:36;3.70;99.90
15072;DHT22;7635;56.696;13.002;2023-03-30T09:37:09;3.70;99.90
15072;DHT22;7635;56.696;13.002;2023-03-30T09:39:37;3.70;99.90
15072;DHT22;7635;56.696;13.002;2023-03-30T09:42:15;3.70;99.90
15072;DHT22;7635;56.696;13.002;2023-03-30T09:44:46;3.70;99.90
15072;DHT22;7635;56.696;13.002;2023-03-30T09:47:22;3.60;99.90
15072;DHT22;7635;56.696;13.002;2023-03-30T09:49:55;3.60;99.90
15072;DHT22;7635;56.696;13.002;2023-03-30T09:52:23;3.60;99.90
15072;DHT22;7635;56.696;13.002;2023-03-30T09:54:50;3.60;99.90
15072;DHT22;7635;56.696;13.002;2023-03-30T09:57:30;3.60;99.90
15072;DHT22;7635;56.696;13.002;2023-03-30T09:59:58;3.60;99.90
15072;DHT22;7635;56.696;13.002;2023-03-30T10:02:27;3.60;99.90
15072;DHT22;7635;56.696;13.002;2023-03-30T10:04:58;3.60;99.90
15072;DHT22;7635;56.696;13.002;2023-03-30T10:07:29;3.70;99.90
15072;DHT22;7635;56.696;13.002;2023-03-30T10:09:58;3.60;99.90
15072;DHT22;7635;56.696;13.002;2023-03-30T10:12:27;3.70;99.90
15072;DHT22;7635;56.696;13.002;2023-03-30T10:14:56;3.70;99.90
15072;DHT22;7635;56.696;13.002;2023-03-30T10:17:24;3.70;99.90
15072;DHT22;7635;56.696;13.002;2023-03-30T10:19:51;3.70;99.90
15072;DHT22;7635;56.696;13.002;2023-03-30T10:22:20;3.70;99.90
15072;DHT22;7635;56.696;13.002;2023-03-30T10:24:49;3.80;99.90
15072;DHT22;7635;56.696;13.002;2023-03-30T10:27:16;3.80;99.90
15072;DHT22;7635;56.696;13.002;2023-03-30T10:29:46;3.80;99.90
15072;DHT22;7635;56.696;13.002;2023-03-30T10:32:17;3.80;99.90
15072;DHT22;7635;56.696;13.002;2023-03-30T10:34:46;3.80;99.90
15072;DHT22;7635;56.696;13.002;2023-03-30T10:37:17;3.90;99.90
15072;DHT22;7635;56.696;13.002;2023-03-30T10:39:47;3.80;99.90
15072;DHT22;7635;56.696;13.002;2023-03-30T10:42:16;3.80;99.90
15072;DHT22;7635;56.696;13.002;2023-03-30T10:44:48;3.80;99.90
15072;DHT22;7635;56.696;13.002;2023-03-30T10:47:36;3.80;99.90
15072;DHT22;7635;56.696;13.002;2023-03-30T10:50:18;3.80;99.90
15072;DHT22;7635;56.696;13.002;2023-03-30T10:52:54;3.90;99.90
15072;DHT22;7635;56.696;13.002;2023-03-30T10:55:28;3.90;99.90
15072;DHT22;7635;56.696;13.002;2023-03-30T10:58:05;3.90;99.90
15072;DHT22;7635;56.696;13.002;2023-03-30T11:00:50;3.90;99.90
15072;DHT22;7635;56.696;13.002;2023-03-30T11:03:21;3.90;99.90
15072;DHT22;7635;56.696;13.002;2023-03-30T11:05:52;3.90;99.90
15072;DHT22;7635;56.696;13.002;2023-03-30T11:08:22;3.90;99.90
15072;DHT22;7635;56.696;13.002;2023-03-30T11:10:53;3.90;99.90
15072;DHT22;7635;56.696;13.002;2023-03-30T11:13:22;3.90;99.90
15072;DHT22;7635;56.696;13.002;2023-03-30T11:15:54;3.80;99.90
15072;DHT22;7635;56.696;13.002;2023-03-30T11:18:24;3.90;99.90
15072;DHT22;7635;56.696;13.002;2023-03-30T11:20:58;3.80;99.90
15072;DHT22;7635;56.696;13.002;2023-03-30T11:23:32;3.80;99.90
15072;DHT22;7635;56.696;13.002;2023-03-30T11:26:03;3.80;99.90
15072;DHT22;7635;56.696;13.002;2023-03-30T11:28:54;3.80;99.90
15072;DHT22;7635;56.696;13.002;2023-03-30T11:31:35;3.80;99.90
15072;DHT22;7635;56.696;13.002;2023-03-30T11:34:11;3.80;99.90
15072;DHT22;7635;56.696;13.002;2023-03-30T11:36:45;3.80;99.90
15072;DHT22;7635;56.696;13.002;2023-03-30T11:39:14;3.80;99.90
15072;DHT22;7635;56.696;13.002;2023-03-30T11:41:44;3.80;99.90
15072;DHT22;7635;56.696;13.002;2023-03-30T11:44:13;3.80;99.90
15072;DHT22;7635;56.696;13.002;2023-03-30T11:46:48;3.80;99.90
15072;DHT22;7635;56.696;13.002;2023-03-30T11:49:27;3.80;99.90
15072;DHT22;7635;56.696;13.002;2023-03-30T11:52:06;3.80;99.90
15072;DHT22;7635;56.696;13.002;2023-03-30T11:54:48;3.80;99.90
15072;DHT22;7635;56.696;13.002;2023-03-30T11:57:24;3.90;99.90
15072;DHT22;7635;56.696;13.002;2023-03-30T12:00:00;3.80;99.90
15072;DHT22;7635;56.696;13.002;2023-03-30T12:02:41;3.90;99.90
15072;DHT22;7635;56.696;13.002;2023-03-30T12:05:17;3.80;99.90
15072;DHT22;7635;56.696;13.002;2023-03-30T12:07:55;3.80;99.90
15072;DHT22;7635;56.696;13.002;2023-03-30T12:10:27;3.80;99.90
15072;DHT22;7635;56.696;13.002;2023-03-30T12:12:55;3.90;99.90
15072;DHT22;7635;56.696;13.002;2023-03-30T12:15:30;3.90;99.90
15072;DHT22;7635;56.696;13.002;2023-03-30T12:18:04;3.90;99.90
15072;DHT22;7635;56.696;13.002;2023-03-30T12:20:38;3.90;99.90
15072;DHT22;7635;56.696;13.002;2023-03-30T12:23:33;3.90;99.90
15072;DHT22;7635;56.696;13.002;2023-03-30T12:26:09;3.90;99.90
15072;DHT22;7635;56.696;13.002;2023-03-30T12:28:43;3.90;99.90
15072;DHT22;7635;56.696;13.002;2023-03-30T12:31:10;3.90;99.90
15072;DHT22;7635;56.696;13.002;2023-03-30T12:33:46;3.90;99.90
15072;DHT22;7635;56.696;13.002;2023-03-30T12:36:25;3.90;99.90
15072;DHT22;7635;56.696;13.002;2023-03-30T12:38:59;3.90;99.90
15072;DHT22;7635;56.696;13.002;2023-03-30T12:41:37;3.90;99.90
15072;DHT22;7635;56.696;13.002;2023-03-30T12:47:15;4.00;99.90
15072;DHT22;7635;56.696;13.002;2023-03-30T12:49:59;4.00;99.90
15072;DHT22;7635;56.696;13.002;2023-03-30T12:52:36;4.00;99.90
15072;DHT22;7635;56.696;13.002;2023-03-30T12:55:13;4.00;99.90
15072;DHT22;7635;56.696;13.002;2023-03-30T12:57:55;4.00;99.90
15072;DHT22;7635;56.696;13.002;2023-03-30T13:01:09;4.00;99.90
15072;DHT22;7635;56.696;13.002;2023-03-30T13:03:40;4.00;99.90
15072;DHT22;7635;56.696;13.002;2023-03-30T13:06:20;4.00;99.90
15072;DHT22;7635;56.696;13.002;2023-03-30T13:08:53;4.00;99.90
15072;DHT22;7635;56.696;13.002;2023-03-30T13:11:21;4.10;99.90
15072;DHT22;7635;56.696;13.002;2023-03-30T13:13:53;4.10;99.90
15072;DHT22;7635;56.696;13.002;2023-03-30T13:19:26;4.10;99.90
15072;DHT22;7635;56.696;13.002;2023-03-30T13:22:17;4.10;99.90
15072;DHT22;7635;56.696;13.002;2023-03-30T13:24:51;4.10;99.90
15072;DHT22;7635;56.696;13.002;2023-03-30T13:27:24;4.10;99.90
15072;DHT22;7635;56.696;13.002;2023-03-30T13:29:54;4.10;99.90
15072;DHT22;7635;56.696;13.002;2023-03-30T13:32:33;4.10;99.90
15072;DHT22;7635;56.696;13.002;2023-03-30T13:38:10;4.20;99.90
15072;DHT22;7635;56.696;13.002;2023-03-30T13:40:48;4.20;99.90
15072;DHT22;7635;56.696;13.002;2023-03-30T13:43:22;4.20;99.90
15072;DHT22;7635;56.696;13.002;2023-03-30T13:45:58;4.10;99.90
15072;DHT22;7635;56.696;13.002;2023-03-30T13:48:40;4.20;99.90
15072;DHT22;7635;56.696;13.002;2023-03-30T13:51:11;4.20;99.90
15072;DHT22;7635;56.696;13.002;2023-03-30T13:53:45;4.20;99.90
15072;DHT22;7635;56.696;13.002;2023-03-30T13:56:13;4.20;99.90
15072;DHT22;7635;56.696;13.002;2023-03-30T13:58:43;4.20;99.90
15072;DHT22;7635;56.696;13.002;2023-03-30T14:01:12;4.20;99.90
15072;DHT22;7635;56.696;13.002;2023-03-30T14:03:41;4.20;99.90
15072;DHT22;7635;56.696;13.002;2023-03-30T14:06:15;4.20;99.90
15072;DHT22;7635;56.696;13.002;2023-03-30T14:08:45;4.20;99.90
15072;DHT22;7635;56.696;13.002;2023-03-30T14:11:15;4.20;99.90
15072;DHT22;7635;56.696;13.002;2023-03-30T14:13:44;4.20;99.90
15072;DHT22;7635;56.696;13.002;2023-03-30T14:16:18;4.20;99.90
15072;DHT22;7635;56.696;13.002;2023-03-30T14:18:45;4.30;99.90
15072;DHT22;7635;56.696;13.002;2023-03-30T14:21:15;4.30;99.90
15072;DHT22;7635;56.696;13.002;2023-03-30T14:23:47;4.30;99.90
15072;DHT22;7635;56.696;13.002;2023-03-30T14:26:16;4.30;99.90
15072;DHT22;7635;56.696;13.002;2023-03-30T14:28:43;4.30;99.90
15072;DHT22;7635;56.696;13.002;2023-03-30T14:31:15;4.30;99.90
15072;DHT22;7635;56.696;13.002;2023-03-30T14:33:42;4.30;99.90
15072;DHT22;7635;56.696;13.002;2023-03-30T14:36:12;4.30;99.90
15072;DHT22;7635;56.696;13.002;2023-03-30T14:38:42;4.30;99.90
15072;DHT22;7635;56.696;13.002;2023-03-30T14:41:13;4.30;99.90
15072;DHT22;7635;56.696;13.002;2023-03-30T14:43:44;4.30;99.90
15072;DHT22;7635;56.696;13.002;2023-03-30T14:46:13;4.40;99.90
15072;DHT22;7635;56.696;13.002;2023-03-30T14:48:42;4.30;99.90
15072;DHT22;7635;56.696;13.002;2023-03-30T14:51:21;4.40;99.90
15072;DHT22;7635;56.696;13.002;2023-03-30T14:53:48;4.40;99.90
15072;DHT22;7635;56.696;13.002;2023-03-30T14:56:17;4.40;99.90
15072;DHT22;7635;56.696;13.002;2023-03-30T14:58:46;4.40;99.90
15072;DHT22;7635;56.696;13.002;2023-03-30T15:01:16;4.40;99.90
15072;DHT22;7635;56.696;13.002;2023-03-30T15:03:44;4.40;99.90
15072;DHT22;7635;56.696;13.002;2023-03-30T15:06:15;4.40;99.90
15072;DHT22;7635;56.696;13.002;2023-03-30T15:08:46;4.40;99.90
15072;DHT22;7635;56.696;13.002;2023-03-30T15:11:18;4.40;99.90
15072;DHT22;7635;56.696;13.002;2023-03-30T15:13:47;4.40;99.90
15072;DHT22;7635;56.696;13.002;2023-03-30T15:16:17;4.40;99.90
15072;DHT22;7635;56.696;13.002;2023-03-30T15:18:47;4.40;99.90
15072;DHT22;7635;56.696;13.002;2023-03-30T15:21:14;4.40;99.90
15072;DHT22;7635;56.696;13.002;2023-03-30T15:23:42;4.40;99.90
15072;DHT22;7635;56.696;13.002;2023-03-30T15:26:10;4.40;99.90
15072;DHT22;7635;56.696;13.002;2023-03-30T15:28:43;4.40;99.90
15072;DHT22;7635;56.696;13.002;2023-03-30T15:31:12;4.50;99.90
15072;DHT22;7635;56.696;13.002;2023-03-30T15:33:42;4.40;99.90
15072;DHT22;7635;56.696;13.002;2023-03-30T15:36:12;4.50;99.90
15072;DHT22;7635;56.696;13.002;2023-03-30T15:38:45;4.50;99.90
15072;DHT22;7635;56.696;13.002;2023-03-30T15:41:14;4.50;99.90
15072;DHT22;7635;56.696;13.002;2023-03-30T15:43:56;4.50;99.90
15072;DHT22;7635;56.696;13.002;2023-03-30T15:46:24;4.50;99.90
15072;DHT22;7635;56.696;13.002;2023-03-30T15:48:52;4.50;99.90
15072;DHT22;7635;56.696;13.002;2023-03-30T15:51:24;4.50;99.90
15072;DHT22;7635;56.696;13.002;2023-03-30T15:53:53;4.50;99.90
15072;DHT22;7635;56.696;13.002;2023-03-30T15:56:23;4.50;99.90
15072;DHT22;7635;56.696;13.002;2023-03-30T15:58:51;4.50;99.90
15072;DHT22;7635;56.696;13.002;2023-03-30T16:01:20;4.50;99.90
15072;DHT22;7635;56.696;13.002;2023-03-30T16:03:52;4.50;99.90
15072;DHT22;7635;56.696;13.002;2023-03-30T16:06:22;4.50;99.90
15072;DHT22;7635;56.696;13.002;2023-03-30T16:08:49;4.50;99.90
15072;DHT22;7635;56.696;13.002;2023-03-30T16:11:16;4.50;99.90
15072;DHT22;7635;56.696;13.002;2023-03-30T16:13:46;4.50;99.90
15072;DHT22;7635;56.696;13.002;2023-03-30T16:16:14;4.50;99.90
15072;DHT22;7635;56.696;13.002;2023-03-30T16:18:44;4.50;99.90
15072;DHT22;7635;56.696;13.002;2023-03-30T16:21:11;4.50;99.90